Time,TemperatureF,DewpointF,PressureIn,WindDirection,WindDirectionDegrees,WindSpeedMPH,WindSpeedGustMPH,Humidity,HourlyPrecipIn,Conditions,Clouds,dailyrainin,SoftwareType,DateUTC
2013-08-21 00:22:00,74.0,65.0,-100.00,SW,230,5.0,9.0,71,0.00,,,-99.99,,2013-08-21 05:22:00,
2013-08-21 00:43:00,74.0,64.0,-100.00,WSW,240,6.0,10.0,72,0.00,,,-99.99,,2013-08-21 05:43:00,
2013-08-21 01:22:00,73.0,64.0,-100.00,SW,235,5.0,9.0,74,0.00,,,-99.99,,2013-08-21 06:22:00,
2013-08-21 01:42:00,73.0,65.0,-100.00,SW,235,5.0,11.0,75,0.00,,,-99.99,,2013-08-21 06:42:00,
2013-08-21 02:21:00,73.0,65.0,-100.00,WSW,250,6.0,9.0,75,0.00,,,-99.99,,2013-08-21 07:21:00,
2013-08-21 02:42:00,73.0,65.0,-100.00,SW,235,5.0,11.0,75,0.00,,,-99.99,,2013-08-21 07:42:00,
2013-08-21 03:22:00,72.0,65.0,-100.00,WSW,240,5.0,11.0,78,0.00,,,-99.99,,2013-08-21 08:22:00,
2013-08-21 03:43:00,71.0,65.0,-100.00,SW,235,6.0,9.0,79,0.00,,,-99.99,,2013-08-21 08:43:00,
2013-08-21 04:22:00,71.0,65.0,-100.00,SW,230,4.0,7.0,80,0.00,,,-99.99,,2013-08-21 09:22:00,
2013-08-21 04:43:00,71.0,65.0,-100.00,SW,220,4.0,7.0,81,0.00,,,-99.99,,2013-08-21 09:43:00,
2013-08-21 05:23:00,69.0,64.0,-100.00,WSW,240,4.0,7.0,83,0.00,,,-99.99,,2013-08-21 10:23:00,
2013-08-21 07:22:00,70.0,65.0,-100.00,SSW,210,4.0,8.0,83,0.00,,,-99.99,,2013-08-21 12:22:00,
2013-08-21 07:32:00,70.0,65.0,-100.00,SSW,210,4.0,8.0,83,0.00,,,-99.99,,2013-08-21 12:32:00,
2013-08-21 08:42:00,76.0,66.0,-100.00,West,260,5.0,9.0,72,0.00,,,-99.99,,2013-08-21 13:42:00,
2013-08-21 09:21:00,78.0,65.0,-100.00,West,265,4.0,15.0,64,0.00,,,-99.99,,2013-08-21 14:21:00,
2013-08-21 09:42:00,79.0,65.0,-100.00,WSW,250,6.0,12.0,63,0.00,,,-99.99,,2013-08-21 14:42:00,
2013-08-21 10:22:00,81.0,65.0,-100.00,WSW,250,7.0,14.0,59,0.00,,,-99.99,,2013-08-21 15:22:00,
2013-08-21 10:43:00,82.0,66.0,-100.00,West,275,7.0,14.0,57,0.00,,,-99.99,,2013-08-21 15:43:00,
2013-08-21 11:13:00,83.0,66.0,-100.00,WSW,245,7.0,12.0,56,0.00,,,-99.99,,2013-08-21 16:13:00,
2013-08-21 11:24:00,85.0,66.0,-100.00,WNW,285,7.0,14.0,53,0.00,,,-99.99,,2013-08-21 16:24:00,
2013-08-21 11:43:00,85.0,66.0,-100.00,West,265,7.0,12.0,52,0.00,,,-99.99,,2013-08-21 16:43:00,
2013-08-21 12:23:00,88.0,67.0,-100.00,WSW,255,6.0,11.0,49,0.00,,,-99.99,,2013-08-21 17:23:00,
2013-08-21 12:43:00,88.0,66.0,-100.00,WSW,255,6.0,16.0,48,0.00,,,-99.99,,2013-08-21 17:43:00,
2013-08-21 13:22:00,88.0,66.0,-100.00,West,265,7.0,16.0,47,0.00,,,-99.99,,2013-08-21 18:22:00,
2013-08-21 13:42:00,89.0,67.0,-100.00,SW,220,5.0,14.0,48,0.00,,,-99.99,,2013-08-21 18:42:00,
2013-08-21 14:22:00,89.0,66.0,-100.00,WSW,250,9.0,13.0,46,0.00,,,-99.99,,2013-08-21 19:22:00,
2013-08-21 14:42:00,90.0,67.0,-100.00,WSW,255,4.0,11.0,46,0.00,,,-99.99,,2013-08-21 19:42:00,
2013-08-21 15:22:00,90.0,68.0,-100.00,West,260,5.0,12.0,48,0.00,,,-99.99,,2013-08-21 20:22:00,
2013-08-21 15:42:00,89.0,67.0,-100.00,SW,225,7.0,14.0,47,0.00,,,-99.99,,2013-08-21 20:42:00,
2013-08-21 16:12:00,90.0,68.0,-100.00,WSW,250,6.0,13.0,48,0.00,,,-99.99,,2013-08-21 21:12:00,
2013-08-21 16:21:00,89.0,67.0,-100.00,WSW,245,7.0,12.0,48,0.00,,,-99.99,,2013-08-21 21:21:00,
2013-08-21 16:44:00,89.0,67.0,-100.00,WSW,250,7.0,13.0,48,0.00,,,-99.99,,2013-08-21 21:44:00,
2013-08-21 17:14:00,88.0,67.0,-100.00,WSW,240,6.0,12.0,49,0.00,,,-99.99,,2013-08-21 22:14:00,
2013-08-21 17:24:00,88.0,67.0,-100.00,West,265,7.0,12.0,49,0.00,,,-99.99,,2013-08-21 22:24:00,
2013-08-21 17:34:00,88.0,67.0,-100.00,West,265,7.0,12.0,49,0.00,,,-99.99,,2013-08-21 22:34:00,
2013-08-21 17:43:00,88.0,67.0,-100.00,West,265,7.0,12.0,49,0.00,,,-99.99,,2013-08-21 22:43:00,
2013-08-21 18:22:00,86.0,67.0,-100.00,West,260,7.0,11.0,52,0.00,,,-99.99,,2013-08-21 23:22:00,
2013-08-21 18:43:00,85.0,66.0,-100.00,West,260,6.0,12.0,53,0.00,,,-99.99,,2013-08-21 23:43:00,
2013-08-21 19:22:00,83.0,67.0,-100.00,WSW,240,4.0,8.0,58,0.00,,,-99.99,,2013-08-22 00:22:00,
2013-08-21 19:42:00,82.0,67.0,-100.00,WSW,255,4.0,8.0,61,0.00,,,-99.99,,2013-08-22 00:42:00,
2013-08-21 20:22:00,80.0,67.0,-100.00,WSW,240,4.0,7.0,65,0.00,,,-99.99,,2013-08-22 01:22:00,
2013-08-21 20:42:00,79.0,67.0,-100.00,WSW,240,3.0,6.0,67,0.00,,,-99.99,,2013-08-22 01:42:00,
2013-08-21 21:22:00,79.0,67.0,-100.00,WSW,245,4.0,7.0,68,0.00,,,-99.99,,2013-08-22 02:22:00,
2013-08-21 22:22:00,77.0,67.0,-100.00,West,260,5.0,9.0,72,0.00,,,-99.99,,2013-08-22 03:22:00,
2013-08-21 22:45:00,77.0,67.0,-100.00,WSW,250,4.0,8.0,72,0.00,,,-99.99,,2013-08-22 03:45:00,
2013-08-21 23:23:00,77.0,67.0,-100.00,SW,225,3.0,6.0,71,0.00,,,-99.99,,2013-08-22 04:23:00,
2013-08-21 23:44:00,76.0,67.0,-100.00,WSW,245,4.0,7.0,72,0.00,,,-99.99,,2013-08-22 04:44:00,